sensor_id;sensor_type;location;lat;lon;timestamp;pressure;altitude;pressure_sealevel;temperature;humidity
17505;BME280;8870;50.950;11.762;2023-09-12T00:00:08;98052.91;;;19.64;100.00
17505;BME280;8870;50.950;11.762;2023-09-12T00:05:29;98054.28;;;19.54;100.00
17505;BME280;8870;50.950;11.762;2023-09-12T00:11:02;98049.13;;;19.46;100.00
17505;BME280;8870;50.950;11.762;2023-09-12T00:16:21;98056.78;;;19.37;100.00
17505;BME280;8870;50.950;11.762;2023-09-12T00:21:54;98041.75;;;19.28;100.00
17505;BME280;8870;50.950;11.762;2023-09-12T00:27:13;98044.19;;;19.18;100.00
17505;BME280;8870;50.950;11.762;2023-09-12T00:32:46;98044.69;;;19.08;100.00
17505;BME280;8870;50.950;11.762;2023-09-12T00:38:08;98037.63;;;19.00;100.00
17505;BME280;8870;50.950;11.762;2023-09-12T00:43:39;98039.56;;;18.93;100.00
17505;BME280;8870;50.950;11.762;2023-09-12T00:48:57;98038.19;;;18.84;100.00
17505;BME280;8870;50.950;11.762;2023-09-12T00:54:34;98034.25;;;18.79;100.00
17505;BME280;8870;50.950;11.762;2023-09-12T01:00:03;98030.75;;;18.72;100.00
17505;BME280;8870;50.950;11.762;2023-09-12T01:05:38;98036.63;;;18.69;100.00
17505;BME280;8870;50.950;11.762;2023-09-12T01:10:59;98036.47;;;18.64;100.00
17505;BME280;8870;50.950;11.762;2023-09-12T01:16:31;98034.22;;;18.61;100.00
17505;BME280;8870;50.950;11.762;2023-09-12T01:22:07;98042.00;;;18.57;100.00
17505;BME280;8870;50.950;11.762;2023-09-12T01:27:47;98037.44;;;18.51;100.00
17505;BME280;8870;50.950;11.762;2023-09-12T01:33:06;98041.25;;;18.43;100.00
17505;BME280;8870;50.950;11.762;2023-09-12T01:38:38;98033.75;;;18.39;100.00
17505;BME280;8870;50.950;11.762;2023-09-12T01:44:00;98044.69;;;18.32;100.00
17505;BME280;8870;50.950;11.762;2023-09-12T01:49:33;98036.56;;;18.25;100.00
17505;BME280;8870;50.950;11.762;2023-09-12T01:55:02;98032.81;;;18.20;100.00
17505;BME280;8870;50.950;11.762;2023-09-12T02:00:36;98030.16;;;18.13;100.00
17505;BME280;8870;50.950;11.762;2023-09-12T02:05:56;98027.47;;;18.06;100.00
17505;BME280;8870;50.950;11.762;2023-09-12T02:11:28;98034.44;;;18.02;100.00
17505;BME280;8870;50.950;11.762;2023-09-12T02:16:49;98026.06;;;17.97;100.00
17505;BME280;8870;50.950;11.762;2023-09-12T02:22:21;98025.63;;;17.93;100.00
17505;BME280;8870;50.950;11.762;2023-09-12T02:27:39;98030.88;;;17.88;100.00
17505;BME280;8870;50.950;11.762;2023-09-12T02:33:12;98020.66;;;17.83;100.00
17505;BME280;8870;50.950;11.762;2023-09-12T02:38:31;98023.22;;;17.78;100.00
17505;BME280;8870;50.950;11.762;2023-09-12T02:44:03;98028.69;;;17.71;100.00
17505;BME280;8870;50.950;11.762;2023-09-12T02:49:24;98016.78;;;17.66;100.00
17505;BME280;8870;50.950;11.762;2023-09-12T02:54:56;98009.03;;;17.63;100.00
17505;BME280;8870;50.950;11.762;2023-09-12T03:00:14;98019.09;;;17.62;100.00
17505;BME280;8870;50.950;11.762;2023-09-12T03:05:42;98020.34;;;17.60;100.00
17505;BME280;8870;50.950;11.762;2023-09-12T03:11:14;98022.47;;;17.58;100.00
17505;BME280;8870;50.950;11.762;2023-09-12T03:16:32;98029.41;;;17.53;100.00
17505;BME280;8870;50.950;11.762;2023-09-12T03:22:07;98019.56;;;17.52;100.00
17505;BME280;8870;50.950;11.762;2023-09-12T03:27:26;98012.47;;;17.45;100.00
17505;BME280;8870;50.950;11.762;2023-09-12T03:32:57;98015.00;;;17.39;100.00
17505;BME280;8870;50.950;11.762;2023-09-12T03:38:18;98018.34;;;17.35;100.00
17505;BME280;8870;50.950;11.762;2023-09-12T03:43:49;98012.97;;;17.28;100.00
17505;BME280;8870;50.950;11.762;2023-09-12T03:49:10;98018.63;;;17.20;100.00
17505;BME280;8870;50.950;11.762;2023-09-12T03:54:43;98009.22;;;17.16;100.00
17505;BME280;8870;50.950;11.762;2023-09-12T04:00:06;98010.28;;;17.08;100.00
17505;BME280;8870;50.950;11.762;2023-09-12T04:05:38;98014.69;;;17.02;100.00
17505;BME280;8870;50.950;11.762;2023-09-12T04:10:59;98010.94;;;16.97;100.00
17505;BME280;8870;50.950;11.762;2023-09-12T04:16:30;98021.22;;;16.94;100.00
17505;BME280;8870;50.950;11.762;2023-09-12T04:21:49;98018.47;;;16.88;100.00
17505;BME280;8870;50.950;11.762;2023-09-12T04:27:24;98019.50;;;16.87;100.00
17505;BME280;8870;50.950;11.762;2023-09-12T04:32:43;98012.63;;;16.84;100.00
17505;BME280;8870;50.950;11.762;2023-09-12T04:38:14;98015.53;;;16.83;100.00
17505;BME280;8870;50.950;11.762;2023-09-12T04:43:37;98007.59;;;16.81;100.00
17505;BME280;8870;50.950;11.762;2023-09-12T04:49:09;98018.06;;;16.77;100.00
17505;BME280;8870;50.950;11.762;2023-09-12T04:54:27;98023.91;;;16.74;100.00
17505;BME280;8870;50.950;11.762;2023-09-12T05:00:00;98021.41;;;16.73;100.00
17505;BME280;8870;50.950;11.762;2023-09-12T05:05:20;98013.69;;;16.70;100.00
17505;BME280;8870;50.950;11.762;2023-09-12T05:10:51;98021.41;;;16.73;100.00
17505;BME280;8870;50.950;11.762;2023-09-12T05:16:13;98032.06;;;16.74;100.00
17505;BME280;8870;50.950;11.762;2023-09-12T05:21:46;98043.59;;;16.76;100.00
17505;BME280;8870;50.950;11.762;2023-09-12T05:27:04;98050.91;;;16.76;100.00
17505;BME280;8870;50.950;11.762;2023-09-12T05:32:38;98060.72;;;16.77;100.00
17505;BME280;8870;50.950;11.762;2023-09-12T05:37:57;98058.66;;;16.79;100.00
17505;BME280;8870;50.950;11.762;2023-09-12T05:43:30;98067.03;;;16.84;100.00
17505;BME280;8870;50.950;11.762;2023-09-12T05:48:51;98063.03;;;16.87;100.00
17505;BME280;8870;50.950;11.762;2023-09-12T05:54:22;98073.28;;;16.91;100.00
17505;BME280;8870;50.950;11.762;2023-09-12T05:59:41;98066.41;;;16.96;100.00
17505;BME280;8870;50.950;11.762;2023-09-12T06:05:21;98076.25;;;17.03;100.00
17505;BME280;8870;50.950;11.762;2023-09-12T06:10:40;98086.69;;;17.06;100.00
17505;BME280;8870;50.950;11.762;2023-09-12T06:16:15;98091.94;;;17.15;100.00
17505;BME280;8870;50.950;11.762;2023-09-12T06:21:36;98091.06;;;17.21;100.00
17505;BME280;8870;50.950;11.762;2023-09-12T06:27:07;98093.56;;;17.29;100.00
17505;BME280;8870;50.950;11.762;2023-09-12T06:32:27;98100.03;;;17.35;100.00
17505;BME280;8870;50.950;11.762;2023-09-12T06:38:01;98098.78;;;17.44;100.00
17505;BME280;8870;50.950;11.762;2023-09-12T06:43:19;98096.03;;;17.51;100.00
17505;BME280;8870;50.950;11.762;2023-09-12T06:48:50;98090.75;;;17.63;100.00
17505;BME280;8870;50.950;11.762;2023-09-12T06:54:11;98094.47;;;17.75;100.00
17505;BME280;8870;50.950;11.762;2023-09-12T06:59:42;98078.06;;;17.89;100.00
17505;BME280;8870;50.950;11.762;2023-09-12T07:05:00;98076.56;;;17.99;100.00
17505;BME280;8870;50.950;11.762;2023-09-12T07:10:34;98071.47;;;18.16;100.00
17505;BME280;8870;50.950;11.762;2023-09-12T07:15:59;98075.75;;;18.31;100.00
17505;BME280;8870;50.950;11.762;2023-09-12T07:21:32;98086.53;;;18.51;100.00
17505;BME280;8870;50.950;11.762;2023-09-12T07:26:54;98075.91;;;18.68;100.00
17505;BME280;8870;50.950;11.762;2023-09-12T07:32:25;98078.91;;;18.85;100.00
17505;BME280;8870;50.950;11.762;2023-09-12T07:37:43;98085.28;;;19.04;100.00
17505;BME280;8870;50.950;11.762;2023-09-12T07:43:17;98075.34;;;19.29;100.00
17505;BME280;8870;50.950;11.762;2023-09-12T07:48:35;98068.41;;;19.51;100.00
17505;BME280;8870;50.950;11.762;2023-09-12T07:54:06;98064.06;;;19.81;100.00
17505;BME280;8870;50.950;11.762;2023-09-12T07:59:27;98063.50;;;20.09;100.00
17505;BME280;8870;50.950;11.762;2023-09-12T08:04:59;98069.50;;;20.30;100.00
17505;BME280;8870;50.950;11.762;2023-09-12T08:10:17;98086.59;;;20.56;100.00
17505;BME280;8870;50.950;11.762;2023-09-12T08:15:52;98087.47;;;20.80;100.00
17505;BME280;8870;50.950;11.762;2023-09-12T08:21:10;98094.03;;;21.03;100.00
17505;BME280;8870;50.950;11.762;2023-09-12T08:26:42;98099.88;;;21.30;100.00
17505;BME280;8870;50.950;11.762;2023-09-12T08:32:03;98086.06;;;21.49;100.00
17505;BME280;8870;50.950;11.762;2023-09-12T08:37:34;98085.31;;;21.65;100.00
17505;BME280;8870;50.950;11.762;2023-09-12T08:42:52;98084.84;;;21.80;100.00
17505;BME280;8870;50.950;11.762;2023-09-12T08:48:28;98096.22;;;22.01;100.00
17505;BME280;8870;50.950;11.762;2023-09-12T08:53:47;98093.38;;;22.25;100.00
17505;BME280;8870;50.950;11.762;2023-09-12T08:59:21;98100.09;;;22.46;100.00
17505;BME280;8870;50.950;11.762;2023-09-12T09:04:42;98100.53;;;22.72;100.00
17505;BME280;8870;50.950;11.762;2023-09-12T09:10:15;98103.97;;;23.13;100.00
17505;BME280;8870;50.950;11.762;2023-09-12T09:16:11;98102.75;;;23.43;100.00
17505;BME280;8870;50.950;11.762;2023-09-12T09:21:47;98108.44;;;23.76;100.00
17505;BME280;8870;50.950;11.762;2023-09-12T09:27:05;98094.56;;;24.10;100.00
17505;BME280;8870;50.950;11.762;2023-09-12T09:32:37;98092.09;;;24.36;100.00
17505;BME280;8870;50.950;11.762;2023-09-12T09:37:58;98086.25;;;24.59;100.00
17505;BME280;8870;50.950;11.762;2023-09-12T09:43:31;98073.75;;;24.74;100.00
17505;BME280;8870;50.950;11.762;2023-09-12T09:48:50;98077.47;;;24.90;100.00
17505;BME280;8870;50.950;11.762;2023-09-12T09:54:26;98072.84;;;25.01;100.00
17505;BME280;8870;50.950;11.762;2023-09-12T09:59:48;98079.78;;;25.08;100.00
17505;BME280;8870;50.950;11.762;2023-09-12T10:05:20;98088.47;;;25.22;100.00
17505;BME280;8870;50.950;11.762;2023-09-12T10:10:42;98075.75;;;25.21;100.00
17505;BME280;8870;50.950;11.762;2023-09-12T10:16:15;98074.09;;;25.20;100.00
17505;BME280;8870;50.950;11.762;2023-09-12T10:21:50;98087.59;;;25.22;100.00
17505;BME280;8870;50.950;11.762;2023-09-12T10:27:15;98097.25;;;25.24;100.00
17505;BME280;8870;50.950;11.762;2023-09-12T10:32:48;98071.34;;;25.26;100.00
17505;BME280;8870;50.950;11.762;2023-09-12T10:38:07;98074.75;;;25.38;100.00
17505;BME280;8870;50.950;11.762;2023-09-12T10:43:43;98062.69;;;25.44;100.00
17505;BME280;8870;50.950;11.762;2023-09-12T10:49:03;98044.00;;;25.62;100.00
17505;BME280;8870;50.950;11.762;2023-09-12T10:54:40;98069.47;;;25.79;100.00
17505;BME280;8870;50.950;11.762;2023-09-12T11:00:14;98063.97;;;25.79;100.00
17505;BME280;8870;50.950;11.762;2023-09-12T11:05:36;98057.66;;;25.99;100.00
17505;BME280;8870;50.950;11.762;2023-09-12T11:11:17;98057.47;;;26.11;100.00
17505;BME280;8870;50.950;11.762;2023-09-12T11:22:52;98050.88;;;26.54;100.00
17505;BME280;8870;50.950;11.762;2023-09-12T11:28:29;98033.19;;;26.75;100.00
17505;BME280;8870;50.950;11.762;2023-09-12T11:33:50;98030.72;;;26.95;100.00
17505;BME280;8870;50.950;11.762;2023-09-12T11:39:25;98024.31;;;27.30;100.00
17505;BME280;8870;50.950;11.762;2023-09-12T11:44:44;98032.00;;;27.49;100.00
17505;BME280;8870;50.950;11.762;2023-09-12T11:50:29;98045.22;;;27.73;100.00
17505;BME280;8870;50.950;11.762;2023-09-12T11:55:48;98039.00;;;27.96;100.00
17505;BME280;8870;50.950;11.762;2023-09-12T12:01:21;98040.06;;;28.06;100.00
17505;BME280;8870;50.950;11.762;2023-09-12T12:06:42;98047.81;;;28.14;100.00
17505;BME280;8870;50.950;11.762;2023-09-12T12:12:14;98051.44;;;28.04;100.00
17505;BME280;8870;50.950;11.762;2023-09-12T12:17:32;98056.66;;;28.06;100.00
17505;BME280;8870;50.950;11.762;2023-09-12T12:23:06;98044.59;;;27.91;100.00
17505;BME280;8870;50.950;11.762;2023-09-12T12:28:24;98047.25;;;28.07;100.00
17505;BME280;8870;50.950;11.762;2023-09-12T12:33:57;98052.19;;;28.20;100.00
17505;BME280;8870;50.950;11.762;2023-09-12T12:39:42;98027.25;;;28.20;100.00
17505;BME280;8870;50.950;11.762;2023-09-12T12:45:14;98031.44;;;28.18;100.00
17505;BME280;8870;50.950;11.762;2023-09-12T12:50:35;98033.25;;;28.38;100.00
17505;BME280;8870;50.950;11.762;2023-09-12T12:56:12;98017.66;;;28.47;100.00
17505;BME280;8870;50.950;11.762;2023-09-12T13:01:30;98024.34;;;28.41;96.89
17505;BME280;8870;50.950;11.762;2023-09-12T13:07:07;97993.75;;;28.56;98.13
17505;BME280;8870;50.950;11.762;2023-09-12T13:12:30;97996.97;;;28.69;94.28
17505;BME280;8870;50.950;11.762;2023-09-12T13:18:03;97994.00;;;28.95;94.94
17505;BME280;8870;50.950;11.762;2023-09-12T13:23:36;97999.88;;;28.88;98.46
17505;BME280;8870;50.950;11.762;2023-09-12T13:28:57;97986.03;;;29.12;95.65
17505;BME280;8870;50.950;11.762;2023-09-12T13:34:29;97981.13;;;29.33;95.32
17505;BME280;8870;50.950;11.762;2023-09-12T13:39:48;97974.91;;;29.42;92.24
17505;BME280;8870;50.950;11.762;2023-09-12T13:45:23;97971.13;;;29.57;91.51
17505;BME280;8870;50.950;11.762;2023-09-12T13:50:41;97965.81;;;29.79;88.37
17505;BME280;8870;50.950;11.762;2023-09-12T13:56:13;97955.69;;;29.89;91.79
17505;BME280;8870;50.950;11.762;2023-09-12T14:01:36;97951.06;;;30.03;85.40
17505;BME280;8870;50.950;11.762;2023-09-12T14:07:07;97955.06;;;30.30;80.09
17505;BME280;8870;50.950;11.762;2023-09-12T14:12:26;97955.88;;;30.50;79.39
17505;BME280;8870;50.950;11.762;2023-09-12T14:18:01;97952.56;;;30.48;77.42
17505;BME280;8870;50.950;11.762;2023-09-12T14:23:34;97953.09;;;30.50;73.89
17505;BME280;8870;50.950;11.762;2023-09-12T14:28:52;97959.44;;;30.36;74.44
17505;BME280;8870;50.950;11.762;2023-09-12T14:34:27;97955.31;;;30.34;72.63
17505;BME280;8870;50.950;11.762;2023-09-12T14:39:47;97955.41;;;30.42;72.89
17505;BME280;8870;50.950;11.762;2023-09-12T14:45:18;97947.78;;;30.53;70.27
17505;BME280;8870;50.950;11.762;2023-09-12T14:50:41;97948.66;;;30.49;69.63
17505;BME280;8870;50.950;11.762;2023-09-12T14:56:13;97949.66;;;30.39;69.30
17505;BME280;8870;50.950;11.762;2023-09-12T15:01:31;97945.81;;;30.35;70.03
17505;BME280;8870;50.950;11.762;2023-09-12T15:07:05;97934.81;;;30.29;69.06
17505;BME280;8870;50.950;11.762;2023-09-12T15:12:23;97943.09;;;30.16;69.12
17505;BME280;8870;50.950;11.762;2023-09-12T15:17:55;97934.75;;;30.16;68.96
17505;BME280;8870;50.950;11.762;2023-09-12T15:23:18;97939.16;;;30.17;69.42
17505;BME280;8870;50.950;11.762;2023-09-12T15:28:51;97939.13;;;30.03;68.77
17505;BME280;8870;50.950;11.762;2023-09-12T15:34:11;97931.22;;;29.91;70.43
17505;BME280;8870;50.950;11.762;2023-09-12T15:39:45;97916.81;;;29.89;70.52
17505;BME280;8870;50.950;11.762;2023-09-12T15:45:05;97913.44;;;29.92;70.46
17505;BME280;8870;50.950;11.762;2023-09-12T15:50:37;97918.00;;;29.82;68.99
17505;BME280;8870;50.950;11.762;2023-09-12T15:55:59;97901.28;;;29.68;70.20
17505;BME280;8870;50.950;11.762;2023-09-12T16:01:30;97900.09;;;29.56;71.09
17505;BME280;8870;50.950;11.762;2023-09-12T16:06:48;97898.50;;;29.49;71.48
17505;BME280;8870;50.950;11.762;2023-09-12T16:12:22;97895.94;;;29.34;70.94
17505;BME280;8870;50.950;11.762;2023-09-12T16:17:42;97899.75;;;29.38;72.04
17505;BME280;8870;50.950;11.762;2023-09-12T16:23:13;97903.97;;;29.35;71.84
17505;BME280;8870;50.950;11.762;2023-09-12T16:28:34;97898.56;;;29.20;72.93
17505;BME280;8870;50.950;11.762;2023-09-12T16:34:06;97898.25;;;29.02;73.24
17505;BME280;8870;50.950;11.762;2023-09-12T16:39:23;97897.66;;;28.81;75.90
17505;BME280;8870;50.950;11.762;2023-09-12T16:44:59;97900.63;;;28.60;77.56
17505;BME280;8870;50.950;11.762;2023-09-12T16:50:19;97892.78;;;28.38;79.97
17505;BME280;8870;50.950;11.762;2023-09-12T16:55:52;97896.56;;;28.18;82.46
17505;BME280;8870;50.950;11.762;2023-09-12T17:01:15;97888.91;;;28.05;84.72
17505;BME280;8870;50.950;11.762;2023-09-12T17:06:47;97886.50;;;27.88;87.58
17505;BME280;8870;50.950;11.762;2023-09-12T17:12:07;97878.97;;;27.59;91.57
17505;BME280;8870;50.950;11.762;2023-09-12T17:17:41;97876.88;;;27.30;95.80
17505;BME280;8870;50.950;11.762;2023-09-12T17:23:12;97876.22;;;26.98;99.73
17505;BME280;8870;50.950;11.762;2023-09-12T17:28:31;97870.50;;;26.69;100.00
17505;BME280;8870;50.950;11.762;2023-09-12T17:34:04;97874.66;;;26.40;100.00
17505;BME280;8870;50.950;11.762;2023-09-12T17:39:23;97894.03;;;26.14;100.00
17505;BME280;8870;50.950;11.762;2023-09-12T17:44:55;97887.66;;;25.93;100.00
17505;BME280;8870;50.950;11.762;2023-09-12T17:50:16;97895.09;;;25.77;100.00
17505;BME280;8870;50.950;11.762;2023-09-12T17:55:49;97903.34;;;25.67;100.00
17505;BME280;8870;50.950;11.762;2023-09-12T18:01:08;97902.78;;;25.54;100.00
17505;BME280;8870;50.950;11.762;2023-09-12T18:06:43;97900.81;;;25.45;100.00
17505;BME280;8870;50.950;11.762;2023-09-12T18:12:02;97898.81;;;25.35;100.00
17505;BME280;8870;50.950;11.762;2023-09-12T18:17:34;97904.28;;;25.24;100.00
17505;BME280;8870;50.950;11.762;2023-09-12T18:22:55;97902.88;;;25.12;100.00
17505;BME280;8870;50.950;11.762;2023-09-12T18:28:39;97906.94;;;24.93;100.00
17505;BME280;8870;50.950;11.762;2023-09-12T18:33:58;97907.06;;;24.71;100.00
17505;BME280;8870;50.950;11.762;2023-09-12T18:39:31;97920.97;;;24.49;100.00
17505;BME280;8870;50.950;11.762;2023-09-12T18:44:50;97940.69;;;24.36;100.00
17505;BME280;8870;50.950;11.762;2023-09-12T18:50:22;97948.84;;;24.25;100.00
17505;BME280;8870;50.950;11.762;2023-09-12T18:55:43;97948.78;;;24.15;100.00
17505;BME280;8870;50.950;11.762;2023-09-12T19:01:14;97937.34;;;24.01;100.00
17505;BME280;8870;50.950;11.762;2023-09-12T19:06:33;97951.75;;;23.86;100.00
17505;BME280;8870;50.950;11.762;2023-09-12T19:12:07;97945.56;;;23.68;100.00
17505;BME280;8870;50.950;11.762;2023-09-12T19:17:27;97945.31;;;23.48;100.00
17505;BME280;8870;50.950;11.762;2023-09-12T19:22:59;97944.56;;;23.30;100.00
17505;BME280;8870;50.950;11.762;2023-09-12T19:28:21;97933.84;;;23.12;100.00
17505;BME280;8870;50.950;11.762;2023-09-12T19:33:53;97944.66;;;22.96;100.00
17505;BME280;8870;50.950;11.762;2023-09-12T19:39:11;97936.19;;;22.81;100.00
17505;BME280;8870;50.950;11.762;2023-09-12T19:44:46;97940.13;;;22.68;100.00
17505;BME280;8870;50.950;11.762;2023-09-12T19:50:06;97941.81;;;22.52;100.00
17505;BME280;8870;50.950;11.762;2023-09-12T19:55:39;97938.06;;;22.41;100.00
17505;BME280;8870;50.950;11.762;2023-09-12T20:01:00;97930.25;;;22.32;100.00
17505;BME280;8870;50.950;11.762;2023-09-12T20:06:31;97930.56;;;22.19;100.00
17505;BME280;8870;50.950;11.762;2023-09-12T20:11:49;97931.22;;;22.09;100.00
17505;BME280;8870;50.950;11.762;2023-09-12T20:17:24;97928.41;;;22.04;100.00
17505;BME280;8870;50.950;11.762;2023-09-12T20:22:43;97909.59;;;21.96;100.00
17505;BME280;8870;50.950;11.762;2023-09-12T20:28:16;97924.47;;;21.83;100.00
17505;BME280;8870;50.950;11.762;2023-09-12T20:33:36;97925.59;;;21.70;100.00
17505;BME280;8870;50.950;11.762;2023-09-12T20:39:31;97929.81;;;21.61;100.00
17505;BME280;8870;50.950;11.762;2023-09-12T20:44:49;97950.44;;;21.51;100.00
17505;BME280;8870;50.950;11.762;2023-09-12T20:50:22;97931.41;;;21.45;100.00
17505;BME280;8870;50.950;11.762;2023-09-12T20:55:44;97923.91;;;21.40;100.00
17505;BME280;8870;50.950;11.762;2023-09-12T21:01:15;97912.47;;;21.43;100.00
17505;BME280;8870;50.950;11.762;2023-09-12T21:06:36;97894.84;;;21.39;100.00
17505;BME280;8870;50.950;11.762;2023-09-12T21:12:09;97901.66;;;21.36;100.00
17505;BME280;8870;50.950;11.762;2023-09-12T21:17:40;97908.94;;;21.31;100.00
17505;BME280;8870;50.950;11.762;2023-09-12T21:23:15;97908.22;;;21.23;100.00
17505;BME280;8870;50.950;11.762;2023-09-12T21:28:34;97900.66;;;21.14;100.00
17505;BME280;8870;50.950;11.762;2023-09-12T21:34:06;97897.59;;;21.10;100.00
17505;BME280;8870;50.950;11.762;2023-09-12T21:39:26;97898.53;;;21.04;100.00
17505;BME280;8870;50.950;11.762;2023-09-12T21:44:59;97909.28;;;20.93;100.00
17505;BME280;8870;50.950;11.762;2023-09-12T21:50:18;97893.56;;;20.89;100.00
17505;BME280;8870;50.950;11.762;2023-09-12T21:55:53;97884.88;;;20.92;100.00
17505;BME280;8870;50.950;11.762;2023-09-12T22:01:12;97871.69;;;20.89;100.00
17505;BME280;8870;50.950;11.762;2023-09-12T22:06:44;97885.03;;;20.85;100.00
17505;BME280;8870;50.950;11.762;2023-09-12T22:12:06;97865.25;;;20.71;100.00
17505;BME280;8870;50.950;11.762;2023-09-12T22:17:37;97864.06;;;20.67;100.00
17505;BME280;8870;50.950;11.762;2023-09-12T22:22:55;97877.03;;;20.60;100.00
17505;BME280;8870;50.950;11.762;2023-09-12T22:28:28;97892.16;;;20.62;100.00
17505;BME280;8870;50.950;11.762;2023-09-12T22:33:48;97893.38;;;20.55;100.00
17505;BME280;8870;50.950;11.762;2023-09-12T22:39:20;97890.28;;;20.51;100.00
17505;BME280;8870;50.950;11.762;2023-09-12T22:44:40;97877.44;;;20.40;100.00
17505;BME280;8870;50.950;11.762;2023-09-12T22:50:12;97952.84;;;20.36;100.00
17505;BME280;8870;50.950;11.762;2023-09-12T22:55:30;98139.50;;;19.82;100.00
17505;BME280;8870;50.950;11.762;2023-09-12T23:01:03;98108.34;;;19.08;100.00
17505;BME280;8870;50.950;11.762;2023-09-12T23:06:23;98088.03;;;18.08;100.00
17505;BME280;8870;50.950;11.762;2023-09-12T23:17:52;98158.91;;;16.82;100.00
17505;BME280;8870;50.950;11.762;2023-09-12T23:23:25;98119.16;;;16.94;100.00
17505;BME280;8870;50.950;11.762;2023-09-12T23:28:44;98130.44;;;16.91;100.00
17505;BME280;8870;50.950;11.762;2023-09-12T23:34:17;98068.50;;;17.07;100.00
17505;BME280;8870;50.950;11.762;2023-09-12T23:39:36;98052.34;;;17.05;100.00
17505;BME280;8870;50.950;11.762;2023-09-12T23:45:10;98000.41;;;17.27;100.00
17505;BME280;8870;50.950;11.762;2023-09-12T23:50:31;98007.09;;;17.24;100.00
17505;BME280;8870;50.950;11.762;2023-09-12T23:56:04;98044.00;;;17.07;100.00
